Time;durP1;ratioP1;P1;durP2;ratioP2;P2;SDS_P1;SDS_P2;PMS_P1;PMS_P2;Temp;Humidity;BMP_temperature;BMP_pressure;BME280_temperature;BME280_humidity;BME280_pressure;Samples;Min_cycle;Max_cycle;Signal;HPM_P1;HPM_P2
2022/09/12 00:01:24;;;;;;;1.60;0.75;;;;;;;17.72;73.99;100179.69;5094711;28;20052;-71
2022/09/12 00:03:54;;;;;;;2.95;0.70;;;;;;;17.67;74.58;100174.31;5061451;28;20027;-71
2022/09/12 00:06:27;;;;;;;2.42;0.80;;;;;;;17.64;74.47;100173.84;5060576;28;20092;-71
2022/09/12 00:08:53;;;;;;;2.72;0.77;;;;;;;17.62;75.03;100176.19;5042972;28;20042;-71
2022/09/12 00:11:19;;;;;;;1.70;0.70;;;;;;;17.61;74.90;100168.13;5057659;28;20055;-71
2022/09/12 00:13:44;;;;;;;2.03;0.70;;;;;;;17.58;74.50;100174.44;5078035;28;20389;-71
2022/09/12 00:16:15;;;;;;;4.63;0.80;;;;;;;17.57;74.50;100167.97;5047152;28;20035;-71
2022/09/12 00:18:41;;;;;;;1.77;0.70;;;;;;;17.56;74.73;100171.97;5058625;28;20087;-71
2022/09/12 00:21:06;;;;;;;1.95;0.80;;;;;;;17.55;74.89;100170.34;5058144;28;20062;-71
2022/09/12 00:23:32;;;;;;;1.95;0.88;;;;;;;17.54;74.50;100174.28;5048158;28;20036;-71
2022/09/12 00:25:57;;;;;;;2.25;0.75;;;;;;;17.50;75.00;100173.38;5057571;28;20025;-71
2022/09/12 00:28:23;;;;;;;3.92;0.80;;;;;;;17.49;74.70;100171.72;5046863;28;20068;-71
2022/09/12 00:30:48;;;;;;;1.00;0.70;;;;;;;17.47;75.04;100162.00;5046066;28;20062;-71
2022/09/12 00:33:15;;;;;;;2.17;1.02;;;;;;;17.42;75.86;100161.06;5074414;28;20042;-71
2022/09/12 00:35:44;;;;;;;2.22;0.80;;;;;;;17.41;75.37;100169.81;5077198;28;20035;-71
2022/09/12 00:38:11;;;;;;;2.15;0.85;;;;;;;17.39;74.90;100167.38;5093873;28;20063;-71
2022/09/12 00:40:37;;;;;;;4.43;0.90;;;;;;;17.39;75.28;100170.19;5073610;28;20032;-71
2022/09/12 00:43:02;;;;;;;4.07;0.80;;;;;;;17.34;75.87;100166.78;5039491;28;20675;-71
2022/09/12 00:45:28;;;;;;;4.38;0.90;;;;;;;17.32;75.94;100160.69;5023190;28;20044;-71
2022/09/12 00:47:55;;;;;;;2.80;0.90;;;;;;;17.29;76.71;100155.78;5073702;28;20028;-71
2022/09/12 00:50:20;;;;;;;2.25;0.70;;;;;;;17.27;76.44;100152.50;5024659;28;20487;-71
2022/09/12 00:53:05;;;;;;;1.77;0.82;;;;;;;17.28;76.42;100156.97;5059501;28;20025;-71
2022/09/12 00:55:34;;;;;;;4.43;0.80;;;;;;;17.22;76.36;100156.38;5046410;28;20039;-71
2022/09/12 00:58:12;;;;;;;3.58;0.90;;;;;;;17.20;75.83;100159.50;5042771;28;20040;-71
2022/09/12 01:00:37;;;;;;;3.20;0.90;;;;;;;17.20;75.91;100161.50;5059493;28;20558;-71
2022/09/12 01:03:05;;;;;;;1.63;0.70;;;;;;;17.18;75.52;100161.00;5059933;28;20044;-71
2022/09/12 01:05:31;;;;;;;1.95;0.82;;;;;;;17.18;75.99;100150.59;5077079;28;20109;-71
2022/09/12 01:07:57;;;;;;;2.35;0.85;;;;;;;17.15;76.12;100145.69;5058188;28;20108;-71
2022/09/12 01:10:22;;;;;;;1.33;0.68;;;;;;;17.12;76.67;100148.38;5073632;28;20043;-71
2022/09/12 01:12:48;;;;;;;5.63;1.00;;;;;;;17.09;76.99;100151.88;5077410;28;20028;-71
2022/09/12 01:15:13;;;;;;;2.75;0.90;;;;;;;17.10;76.57;100142.28;5075352;28;20032;-71
2022/09/12 01:17:53;;;;;;;2.05;0.70;;;;;;;17.08;76.79;100144.66;5056456;28;20113;-71
2022/09/12 01:21:00;;;;;;;1.70;0.70;;;;;;;17.04;77.25;100135.25;5058592;28;20403;-71
2022/09/12 01:23:43;;;;;;;2.20;0.80;;;;;;;16.99;78.11;100136.28;5066372;28;20059;-71
2022/09/12 01:26:34;;;;;;;3.95;0.95;;;;;;;16.97;78.47;100127.44;5078789;28;20031;-71
2022/09/12 01:29:15;;;;;;;2.63;1.02;;;;;;;16.85;78.71;100124.56;5062616;28;20028;-71
2022/09/12 01:32:19;;;;;;;3.03;1.20;;;;;;;16.79;79.70;100126.78;5049751;28;20042;-71
2022/09/12 01:34:59;;;;;;;1.70;0.88;;;;;;;16.77;80.06;100115.09;4995025;28;20038;-71
2022/09/12 01:37:32;;;;;;;3.10;1.13;;;;;;;16.72;80.54;100110.50;5047119;28;20068;-71
2022/09/12 01:39:57;;;;;;;2.03;0.80;;;;;;;16.73;79.75;100112.13;5091752;28;20082;-71
2022/09/12 01:42:30;;;;;;;2.38;1.13;;;;;;;16.71;80.75;100108.81;5099105;28;20395;-71
2022/09/12 01:45:02;;;;;;;1.30;1.00;;;;;;;16.69;79.93;100113.97;5061109;28;20023;-70
2022/09/12 01:47:38;;;;;;;4.28;0.90;;;;;;;16.69;80.97;100113.16;5058037;28;20051;-70
2022/09/12 01:50:27;;;;;;;4.10;1.13;;;;;;;16.69;80.83;100105.56;5043410;28;20024;-70
2022/09/12 01:53:00;;;;;;;3.28;0.82;;;;;;;16.70;80.75;100101.59;5062344;28;20476;-71
2022/09/12 01:55:28;;;;;;;4.18;1.08;;;;;;;16.71;81.37;100097.63;5056240;28;20028;-71
2022/09/12 01:58:04;;;;;;;3.60;0.85;;;;;;;16.68;80.48;100103.91;5060999;28;20029;-70
2022/09/12 02:00:32;;;;;;;3.15;0.88;;;;;;;16.67;81.52;100093.06;5058131;28;20131;-71
2022/09/12 02:03:10;;;;;;;1.95;0.80;;;;;;;16.72;80.96;100092.84;5030447;28;20031;-70
2022/09/12 02:05:41;;;;;;;6.15;0.98;;;;;;;16.70;80.96;100090.38;5028986;28;20067;-70
2022/09/12 02:08:09;;;;;;;3.25;1.17;;;;;;;16.68;81.78;100084.28;5061502;28;20485;-71
2022/09/12 02:10:44;;;;;;;3.15;1.02;;;;;;;16.70;81.73;100083.97;5076340;28;20032;-71
2022/09/12 02:13:14;;;;;;;4.07;1.10;;;;;;;16.70;82.00;100084.78;5028523;28;20035;-70
2022/09/12 02:15:52;;;;;;;4.50;1.48;;;;;;;16.67;82.86;100082.66;5061572;28;20029;-71
2022/09/12 02:18:17;;;;;;;3.13;1.05;;;;;;;16.66;82.45;100077.38;5064084;28;20032;-71
2022/09/12 02:20:44;;;;;;;2.65;0.80;;;;;;;16.68;82.65;100075.88;5062289;28;20028;-71
2022/09/12 02:23:12;;;;;;;1.30;0.80;;;;;;;16.68;82.49;100063.84;5040334;28;20016;-71
2022/09/12 02:25:41;;;;;;;1.92;1.10;;;;;;;16.67;83.33;100070.63;5030563;28;20450;-71
2022/09/12 02:28:37;;;;;;;2.40;1.00;;;;;;;16.67;82.48;100074.25;5043659;28;20461;-71
2022/09/12 02:31:18;;;;;;;3.05;1.20;;;;;;;16.65;82.56;100073.75;5054259;28;20046;-71
2022/09/12 02:34:09;;;;;;;3.28;1.20;;;;;;;16.62;83.19;100066.03;5090488;28;20374;-71
2022/09/12 02:36:49;;;;;;;3.10;1.00;;;;;;;16.64;83.21;100060.94;5081860;28;20048;-71
2022/09/12 02:39:18;;;;;;;2.75;1.08;;;;;;;16.63;82.81;100058.44;5093394;28;20031;-71
2022/09/12 02:41:51;;;;;;;2.92;1.00;;;;;;;16.61;82.43;100058.81;5063563;28;20039;-70
2022/09/12 02:44:17;;;;;;;;;;;;;;;16.61;82.56;100058.81;5042756;28;20571;-71
2022/09/12 02:46:45;;;;;;;3.47;1.08;;;;;;;16.60;82.94;100045.94;5076702;28;19978;-71
2022/09/12 02:49:10;;;;;;;1.90;0.90;;;;;;;16.57;83.45;100041.03;5043030;28;20040;-71
2022/09/12 02:51:36;;;;;;;3.90;1.10;;;;;;;16.56;83.70;100045.00;5095655;28;20668;-71
2022/09/12 02:54:02;;;;;;;3.50;1.10;;;;;;;16.54;83.92;100041.72;5040701;28;20033;-71
2022/09/12 02:56:28;;;;;;;3.05;1.23;;;;;;;16.52;83.93;100042.09;5062739;28;20035;-71
2022/09/12 02:58:55;;;;;;;1.80;0.90;;;;;;;16.54;83.47;100038.94;5029181;28;20024;-71
2022/09/12 03:02:00;;;;;;;2.60;0.93;;;;;;;16.54;83.54;100038.94;5039623;28;20048;-71
2022/09/12 03:04:36;;;;;;;5.32;1.20;;;;;;;16.50;83.65;100046.41;4993338;28;20034;-71
2022/09/12 03:07:12;;;;;;;2.60;1.00;;;;;;;16.48;83.60;100045.91;5043176;28;20048;-71
2022/09/12 03:09:48;;;;;;;3.67;0.90;;;;;;;16.43;84.08;100040.53;5079856;28;20077;-70
2022/09/12 03:12:44;;;;;;;3.78;1.10;;;;;;;16.43;85.23;100040.53;5076680;28;20039;-70
2022/09/12 03:15:34;;;;;;;1.88;0.90;;;;;;;16.42;85.13;100033.28;5065901;28;20027;-71
2022/09/12 03:18:00;;;;;;;2.40;0.95;;;;;;;16.40;85.43;100027.19;5072114;28;20095;-71
2022/09/12 03:20:28;;;;;;;2.70;1.08;;;;;;;16.38;85.52;100021.97;5077150;28;20059;-70
2022/09/12 03:22:56;;;;;;;6.03;1.10;;;;;;;16.37;86.04;100022.28;5093380;28;20515;-71
2022/09/12 03:25:41;;;;;;;1.83;0.90;;;;;;;16.33;85.75;100013.75;5026905;28;20086;-70
2022/09/12 03:28:08;;;;;;;2.47;1.30;;;;;;;16.30;86.80;100009.66;5062327;28;20028;-70
2022/09/12 03:30:41;;;;;;;2.33;1.10;;;;;;;16.25;87.35;100007.06;5025906;28;20031;-71
2022/09/12 03:33:10;;;;;;;2.28;1.00;;;;;;;16.22;87.70;100010.56;5039852;28;20389;-71
2022/09/12 03:35:35;;;;;;;1.77;1.10;;;;;;;16.17;87.54;100010.78;5060339;28;20387;-71
2022/09/12 03:38:01;;;;;;;3.28;1.20;;;;;;;16.13;89.07;100009.84;5058271;28;20036;-71
2022/09/12 03:40:26;;;;;;;4.13;1.33;;;;;;;16.10;88.96;100010.50;5078397;28;20058;-70
2022/09/12 03:42:52;;;;;;;4.05;1.25;;;;;;;16.09;89.04;100008.88;5059860;28;20039;-71
2022/09/12 03:45:18;;;;;;;4.95;1.38;;;;;;;16.05;87.93;99999.53;5030255;28;20078;-70
2022/09/12 03:47:43;;;;;;;3.20;1.70;;;;;;;16.03;88.28;100002.66;5031339;28;20040;-70
2022/09/12 03:50:09;;;;;;;2.53;1.33;;;;;;;16.04;88.81;99998.69;5061614;28;20380;-70
2022/09/12 03:52:34;;;;;;;4.38;1.50;;;;;;;16.07;88.28;99994.38;5045395;28;20020;-71
2022/09/12 03:55:00;;;;;;;4.22;1.10;;;;;;;16.08;88.06;99987.63;5091555;28;20028;-71
2022/09/12 03:57:25;;;;;;;3.88;1.27;;;;;;;16.08;88.60;99984.84;5041529;28;20093;-71
2022/09/12 03:59:50;;;;;;;3.25;1.13;;;;;;;16.06;87.33;99981.56;5058201;28;20527;-71
2022/09/12 04:02:16;;;;;;;3.85;1.15;;;;;;;16.06;88.97;99975.94;5093488;28;20021;-71
2022/09/12 04:04:42;;;;;;;5.90;1.63;;;;;;;16.07;89.11;99983.19;5043982;28;20032;-71
2022/09/12 04:07:10;;;;;;;3.15;1.30;;;;;;;16.04;89.73;99984.69;5071602;28;20136;-71
2022/09/12 04:09:36;;;;;;;3.63;1.33;;;;;;;16.06;88.73;99979.56;5024931;28;20021;-70
2022/09/12 04:12:02;;;;;;;2.75;1.05;;;;;;;16.09;88.78;99980.88;5061188;28;20024;-70
2022/09/12 04:14:27;;;;;;;2.20;1.05;;;;;;;16.07;89.37;99986.81;5055816;28;20021;-70
2022/09/12 04:16:53;;;;;;;2.15;1.25;;;;;;;16.08;89.77;99976.44;5078335;28;20035;-70
2022/09/12 04:19:18;;;;;;;3.97;1.50;;;;;;;16.08;90.29;99982.03;5094752;28;20036;-70
2022/09/12 04:21:44;;;;;;;2.25;0.90;;;;;;;16.11;89.17;99980.53;5092526;28;20392;-70
2022/09/12 04:24:09;;;;;;;4.78;1.20;;;;;;;16.11;88.77;99972.94;5095763;28;20061;-70
2022/09/12 04:26:34;;;;;;;2.67;1.00;;;;;;;16.12;88.54;99974.56;5079185;28;20078;-70
2022/09/12 04:29:00;;;;;;;1.75;1.00;;;;;;;16.12;89.40;99971.75;5062840;28;20039;-70
2022/09/12 04:31:25;;;;;;;4.78;1.17;;;;;;;16.13;89.03;99973.41;5044812;28;20028;-70
2022/09/12 04:33:58;;;;;;;2.67;1.10;;;;;;;16.14;89.56;99974.25;5062323;28;20377;-70
2022/09/12 04:36:23;;;;;;;3.78;1.20;;;;;;;16.13;89.35;99967.81;5044216;28;20021;-70
2022/09/12 04:38:49;;;;;;;2.75;1.20;;;;;;;16.12;90.17;99962.56;5040853;28;20037;-70
2022/09/12 04:41:25;;;;;;;2.08;1.30;;;;;;;16.07;89.12;99963.56;5077564;28;20051;-70
2022/09/12 04:43:52;;;;;;;5.05;1.15;;;;;;;16.09;89.16;99958.44;5089920;28;20236;-70
2022/09/12 04:46:21;;;;;;;2.38;1.10;;;;;;;16.09;89.60;99964.06;5095107;28;20036;-70
2022/09/12 04:48:46;;;;;;;3.85;1.42;;;;;;;16.07;89.27;99966.38;5060767;28;20031;-70
2022/09/12 04:51:17;;;;;;;2.55;1.30;;;;;;;16.05;89.11;99966.72;5058217;28;20024;-70
2022/09/12 04:53:46;;;;;;;3.33;1.20;;;;;;;16.06;89.52;99970.34;5058049;28;20085;-70
2022/09/12 04:56:11;;;;;;;3.00;1.30;;;;;;;16.03;89.10;99968.25;5062955;28;20528;-70
2022/09/12 04:58:37;;;;;;;5.65;1.30;;;;;;;15.99;90.20;99970.06;5061305;28;20047;-70
2022/09/12 05:01:13;;;;;;;4.03;1.30;;;;;;;15.95;90.75;99969.94;5064331;28;20083;-70
2022/09/12 05:03:39;;;;;;;3.65;1.13;;;;;;;15.92;90.06;99976.25;5062932;28;20030;-70
2022/09/12 05:06:13;;;;;;;3.38;1.17;;;;;;;15.93;90.10;99969.47;5078133;28;20043;-70
2022/09/12 05:08:38;;;;;;;2.85;1.10;;;;;;;15.93;88.74;99977.88;5045205;28;20025;-70
2022/09/12 05:11:05;;;;;;;1.58;0.90;;;;;;;15.91;87.51;99971.81;5043918;28;20040;-70
2022/09/12 05:13:31;;;;;;;1.95;1.00;;;;;;;15.93;87.32;99982.66;5063507;28;20033;-70
2022/09/12 05:15:57;;;;;;;1.88;1.15;;;;;;;15.91;86.48;99983.00;5064419;28;20048;-70
2022/09/12 05:18:22;;;;;;;3.50;1.23;;;;;;;15.88;85.70;99980.91;5057353;28;20481;-70
2022/09/12 05:20:48;;;;;;;2.50;1.13;;;;;;;15.84;85.79;99975.16;5061021;28;20092;-71
2022/09/12 05:23:13;;;;;;;3.00;1.10;;;;;;;15.82;85.21;99985.03;5099030;28;20107;-70
2022/09/12 05:25:39;;;;;;;2.40;1.10;;;;;;;15.80;86.76;99968.59;5079340;28;20473;-70
2022/09/12 05:28:04;;;;;;;1.55;1.10;;;;;;;15.78;85.58;99973.72;5081048;28;20032;-71
2022/09/12 05:30:30;;;;;;;2.00;1.00;;;;;;;15.80;85.31;99971.41;5098044;28;20024;-70
2022/09/12 05:32:55;;;;;;;1.42;1.10;;;;;;;15.75;85.44;99966.00;5099327;28;20031;-70
2022/09/12 05:35:21;;;;;;;2.55;0.93;;;;;;;15.72;85.01;99960.28;5095630;28;20028;-70
2022/09/12 05:37:46;;;;;;;3.50;1.13;;;;;;;15.69;85.74;99967.38;5080974;28;20047;-70
2022/09/12 05:40:16;;;;;;;2.72;1.17;;;;;;;15.69;86.08;99972.16;5077950;28;20085;-70
2022/09/12 05:42:41;;;;;;;2.60;1.00;;;;;;;15.62;86.66;99961.47;5050616;28;20035;-71
2022/09/12 05:45:07;;;;;;;1.98;1.10;;;;;;;15.61;85.76;99959.84;5062896;28;20028;-71
2022/09/12 05:47:33;;;;;;;1.73;1.00;;;;;;;15.57;85.71;99954.13;5047751;28;20107;-70
2022/09/12 05:49:58;;;;;;;2.65;1.10;;;;;;;15.53;86.30;99957.94;5077394;28;20031;-67
2022/09/12 05:52:24;;;;;;;3.85;1.08;;;;;;;15.53;86.54;99961.53;5061051;28;20028;-67
2022/09/12 05:54:49;;;;;;;3.47;1.17;;;;;;;15.47;87.05;99964.88;5062670;28;20029;-67
2022/09/12 05:57:15;;;;;;;1.52;1.30;;;;;;;15.47;87.16;99962.09;5060509;28;20029;-67
2022/09/12 05:59:40;;;;;;;1.83;1.10;;;;;;;15.47;87.24;99962.09;5056040;28;20049;-68
2022/09/12 06:02:06;;;;;;;3.03;1.20;;;;;;;15.46;87.01;99957.63;5057522;28;20090;-67
2022/09/12 06:04:31;;;;;;;1.75;1.23;;;;;;;15.47;87.68;99965.69;5058159;28;20035;-67
2022/09/12 06:06:56;;;;;;;2.63;1.17;;;;;;;15.50;87.28;99970.63;5061140;28;20035;-67
2022/09/12 06:09:24;;;;;;;1.58;1.00;;;;;;;15.50;87.40;99967.81;5043285;28;20037;-67
2022/09/12 06:11:50;;;;;;;2.85;1.25;;;;;;;15.52;87.04;99959.09;5062907;28;20149;-67
2022/09/12 06:14:16;;;;;;;2.97;1.17;;;;;;;15.56;88.35;99969.25;5078215;28;20495;-67
2022/09/12 06:16:42;;;;;;;3.83;1.30;;;;;;;15.59;89.30;99967.75;5046009;28;20032;-67
2022/09/12 06:19:15;;;;;;;1.48;1.05;;;;;;;15.64;90.67;99973.97;5025948;28;20078;-68
2022/09/12 06:21:40;;;;;;;1.92;1.23;;;;;;;15.73;90.77;99967.50;5058101;28;20084;-68
2022/09/12 06:24:10;;;;;;;2.40;1.23;;;;;;;15.82;90.72;99966.28;5094431;28;20036;-67
2022/09/12 06:26:36;;;;;;;5.15;1.20;;;;;;;15.95;90.99;99974.72;5097150;28;20034;-68
2022/09/12 06:29:01;;;;;;;3.75;1.25;;;;;;;16.05;89.98;99974.31;5045450;28;20459;-67
2022/09/12 06:31:32;;;;;;;4.22;1.30;;;;;;;16.17;90.93;99982.75;5059596;28;20028;-67
2022/09/12 06:34:02;;;;;;;4.25;1.38;;;;;;;16.31;91.21;99971.25;5062103;28;20028;-67
2022/09/12 06:36:29;;;;;;;4.75;1.40;;;;;;;16.47;91.22;99969.44;5028813;28;20043;-67
2022/09/12 06:38:56;;;;;;;3.75;1.20;;;;;;;16.60;91.22;99975.03;5059645;28;20043;-67
2022/09/12 06:41:22;;;;;;;4.47;1.33;;;;;;;16.74;90.19;99973.56;5062064;28;20040;-67
2022/09/12 06:43:47;;;;;;;3.78;1.10;;;;;;;16.89;89.88;99971.28;5039765;28;20035;-67
2022/09/12 06:46:13;;;;;;;4.70;1.63;;;;;;;17.05;89.93;99977.81;5043467;28;20027;-67
2022/09/12 06:48:38;;;;;;;4.55;0.95;;;;;;;17.18;87.88;99965.41;5039331;28;20028;-67
2022/09/12 06:51:15;;;;;;;3.45;1.20;;;;;;;17.35;87.40;99966.34;5070475;28;20036;-67
2022/09/12 06:53:41;;;;;;;1.70;1.00;;;;;;;17.49;87.58;99955.53;5037589;28;20085;-67
2022/09/12 06:56:11;;;;;;;2.75;1.23;;;;;;;17.66;86.86;99957.25;5041594;28;20036;-67
2022/09/12 06:58:37;;;;;;;4.30;1.20;;;;;;;17.84;86.68;99961.44;5062099;28;20043;-67
2022/09/12 07:01:04;;;;;;;3.40;1.00;;;;;;;17.97;86.41;99962.22;5000013;28;1244426;-67
2022/09/12 07:03:30;;;;;;;3.90;1.20;;;;;;;18.10;85.46;99954.56;5045484;28;20093;-67
2022/09/12 07:05:55;;;;;;;2.65;1.20;;;;;;;18.26;85.05;99963.03;5060452;28;20028;-67
2022/09/12 07:08:21;;;;;;;2.33;1.42;;;;;;;18.41;84.75;99962.22;5075390;28;20057;-67
2022/09/12 07:10:46;;;;;;;3.08;0.98;;;;;;;18.55;84.04;99953.38;5059700;28;20028;-68
2022/09/12 07:13:12;;;;;;;4.45;1.10;;;;;;;18.66;84.59;99948.03;5079363;28;20039;-67
2022/09/12 07:15:38;;;;;;;2.63;0.93;;;;;;;18.81;84.19;99954.88;5060999;28;20120;-67
2022/09/12 07:18:03;;;;;;;3.95;1.10;;;;;;;18.96;83.04;99956.84;5037962;28;20033;-68
2022/09/12 07:20:31;;;;;;;4.53;1.00;;;;;;;19.09;82.09;99954.78;5077955;28;20032;-68
2022/09/12 07:22:57;;;;;;;4.70;0.88;;;;;;;19.24;82.01;99959.53;5075347;28;20549;-68
2022/09/12 07:25:22;;;;;;;3.38;1.08;;;;;;;19.36;82.04;99965.06;5058557;28;20036;-68
2022/09/12 07:27:48;;;;;;;5.57;1.13;;;;;;;19.50;81.31;99958.13;5078328;28;20032;-68
2022/09/12 07:30:15;;;;;;;4.90;0.80;;;;;;;19.64;80.51;99955.63;5047444;28;20020;-68
2022/09/12 07:32:40;;;;;;;2.10;0.95;;;;;;;19.76;80.08;99949.06;5055158;28;20032;-68
2022/09/12 07:35:06;;;;;;;2.70;0.90;;;;;;;19.92;78.98;99965.91;5060175;28;20526;-68
2022/09/12 07:37:31;;;;;;;3.22;1.02;;;;;;;20.07;77.99;99960.19;5043304;28;20111;-68
2022/09/12 07:39:57;;;;;;;1.85;0.90;;;;;;;20.19;78.25;99961.22;5060732;28;20047;-68
2022/09/12 07:42:23;;;;;;;1.77;0.70;;;;;;;20.32;77.91;99959.88;5077946;28;20036;-68
2022/09/12 07:44:51;;;;;;;6.53;0.90;;;;;;;20.44;77.42;99962.50;5059992;28;20431;-68
2022/09/12 07:47:17;;;;;;;3.15;0.90;;;;;;;20.59;76.49;99962.81;5054943;28;20520;-68
2022/09/12 07:49:42;;;;;;;2.83;0.95;;;;;;;20.72;75.58;99965.06;5043588;28;20024;-68
2022/09/12 07:52:08;;;;;;;3.58;0.77;;;;;;;20.86;74.90;99960.88;5093013;28;20077;-67
2022/09/12 07:54:33;;;;;;;2.90;0.77;;;;;;;20.96;74.13;99954.59;5060005;28;20391;-68
2022/09/12 07:56:59;;;;;;;3.67;0.80;;;;;;;21.08;75.08;99950.75;5058784;28;20035;-68
2022/09/12 07:59:24;;;;;;;1.58;0.70;;;;;;;21.23;73.97;99946.97;5059381;28;20102;-68
2022/09/12 08:01:50;;;;;;;3.70;1.00;;;;;;;21.36;72.43;99939.06;5059901;28;20051;-68
2022/09/12 08:04:16;;;;;;;2.72;0.90;;;;;;;21.45;71.91;99928.34;5069609;28;20031;-68
2022/09/12 08:06:41;;;;;;;3.75;0.90;;;;;;;21.58;72.26;99935.38;5057565;28;20028;-68
2022/09/12 08:09:07;;;;;;;4.28;0.70;;;;;;;21.73;70.82;99932.75;5059390;28;20032;-68
2022/09/12 08:11:32;;;;;;;1.92;0.80;;;;;;;21.83;71.99;99929.25;5058906;28;20036;-68
2022/09/12 08:13:58;;;;;;;3.22;0.88;;;;;;;21.88;70.87;99926.09;5060575;28;20024;-68
2022/09/12 08:16:26;;;;;;;1.65;0.68;;;;;;;22.01;70.77;99927.47;5054814;28;20025;-68
2022/09/12 08:18:52;;;;;;;3.72;0.75;;;;;;;22.12;70.64;99923.94;5056728;28;20027;-68
2022/09/12 08:21:19;;;;;;;4.45;0.80;;;;;;;22.27;69.76;99914.44;5044858;28;20071;-68
2022/09/12 08:23:44;;;;;;;4.43;0.98;;;;;;;22.37;69.08;99919.41;5058873;28;20063;-68
2022/09/12 08:26:13;;;;;;;3.05;0.70;;;;;;;22.49;68.26;99921.16;5062142;28;20040;-68
2022/09/12 08:28:39;;;;;;;2.67;0.80;;;;;;;22.64;68.15;99911.56;5076735;28;20395;-68
2022/09/12 08:31:10;;;;;;;5.50;1.40;;;;;;;22.74;68.28;99912.88;5038764;28;20374;-68
2022/09/12 08:33:36;;;;;;;5.28;1.75;;;;;;;22.84;67.36;99920.63;5038797;28;20074;-68
2022/09/12 08:36:21;;;;;;;4.60;2.00;;;;;;;22.91;67.12;99909.38;5059023;28;20052;-68
2022/09/12 08:38:48;;;;;;;4.80;1.63;;;;;;;23.03;66.62;99910.31;5040493;28;20040;-68
2022/09/12 08:41:16;;;;;;;3.92;1.38;;;;;;;23.14;66.51;99912.00;5042882;28;20037;-68
2022/09/12 08:43:48;;;;;;;3.85;1.13;;;;;;;23.29;65.90;99910.09;5077140;28;20032;-68
2022/09/12 08:46:22;;;;;;;4.53;1.02;;;;;;;23.47;64.71;99912.22;5095850;28;20480;-68
2022/09/12 08:48:47;;;;;;;4.63;0.80;;;;;;;23.58;64.13;99918.75;5061292;28;20026;-68
2022/09/12 08:51:14;;;;;;;4.25;1.20;;;;;;;23.69;63.97;99916.78;5042938;28;20119;-68
2022/09/12 08:53:40;;;;;;;3.55;0.82;;;;;;;23.80;62.89;99920.50;5057867;28;20021;-68
2022/09/12 08:56:07;;;;;;;3.97;0.82;;;;;;;23.92;61.83;99924.19;5058093;28;20024;-68
2022/09/12 08:58:35;;;;;;;3.00;0.90;;;;;;;24.00;61.56;99925.84;5061323;28;20032;-68
2022/09/12 09:01:28;;;;;;;2.95;0.70;;;;;;;24.09;60.53;99923.44;5054265;28;20049;-68
2022/09/12 09:04:12;;;;;;;5.95;0.70;;;;;;;24.20;60.78;99920.63;5056915;28;20081;-68
2022/09/12 09:07:04;;;;;;;4.82;0.70;;;;;;;24.29;61.02;99912.56;5092787;28;20672;-68
2022/09/12 09:10:06;;;;;;;5.20;0.88;;;;;;;24.45;61.02;99912.22;5088376;28;20040;-68
2022/09/12 09:12:56;;;;;;;5.90;0.73;;;;;;;24.60;60.12;99916.72;5061398;28;20058;-67
2022/09/12 09:15:53;;;;;;;4.93;0.70;;;;;;;24.72;59.50;99910.63;5040905;28;20032;-68
2022/09/12 09:18:23;;;;;;;2.78;0.60;;;;;;;24.85;59.97;99902.53;5076987;28;20032;-68
2022/09/12 09:20:51;;;;;;;3.35;0.80;;;;;;;24.86;58.76;99900.50;5055793;28;20056;-68
2022/09/12 09:23:48;;;;;;;3.10;0.80;;;;;;;24.99;58.95;99893.19;5058111;28;20032;-68
2022/09/12 09:26:27;;;;;;;3.05;0.60;;;;;;;25.13;58.44;99898.84;5038341;28;20526;-68
2022/09/12 09:28:56;;;;;;;3.47;0.70;;;;;;;25.28;59.74;99898.84;5042581;28;20430;-68
2022/09/12 09:31:23;;;;;;;3.15;0.70;;;;;;;25.38;58.51;99892.31;5038854;28;20456;-68
2022/09/12 09:33:50;;;;;;;1.67;0.50;;;;;;;25.51;58.52;99887.00;5056600;28;20066;-68
2022/09/12 09:36:50;;;;;;;2.97;0.70;;;;;;;25.58;57.58;99887.78;5033250;28;20025;-67
2022/09/12 09:39:25;;;;;;;2.38;0.50;;;;;;;25.68;56.10;99883.28;5039352;28;20040;-68
2022/09/12 09:41:50;;;;;;;1.92;0.65;;;;;;;25.77;55.15;99882.84;5053536;28;20433;-68
2022/09/12 09:44:16;;;;;;;2.67;0.77;;;;;;;25.88;56.22;99885.66;5077945;28;20040;-68
2022/09/12 09:46:42;;;;;;;3.17;0.70;;;;;;;25.96;56.50;99896.59;5051434;28;20032;-68
2022/09/12 09:49:10;;;;;;;6.80;0.80;;;;;;;26.10;55.68;99892.06;5061035;28;20024;-68
2022/09/12 09:51:37;;;;;;;2.80;0.65;;;;;;;26.21;55.67;99889.94;5053065;28;20035;-68
2022/09/12 09:54:15;;;;;;;2.88;0.60;;;;;;;26.29;55.01;99889.50;5059140;28;20033;-68
2022/09/12 09:56:44;;;;;;;2.25;0.50;;;;;;;26.42;56.11;99886.97;5080169;28;20062;-68
2022/09/12 09:59:11;;;;;;;2.83;0.70;;;;;;;26.54;54.76;99884.88;5063909;28;20047;-69
2022/09/12 10:01:43;;;;;;;4.60;0.50;;;;;;;26.63;53.94;99882.38;5053040;28;20086;-68
2022/09/12 10:04:18;;;;;;;3.72;0.55;;;;;;;26.77;53.43;99885.09;5058574;28;20052;-68
2022/09/12 10:06:44;;;;;;;1.38;0.50;;;;;;;26.88;51.82;99880.13;5047186;28;20028;-68
2022/09/12 10:09:21;;;;;;;3.05;0.70;;;;;;;27.00;52.36;99878.00;5076490;28;20077;-68
2022/09/12 10:11:46;;;;;;;2.80;0.40;;;;;;;27.11;52.86;99887.25;5063936;28;20031;-68
2022/09/12 10:14:36;;;;;;;4.57;0.50;;;;;;;27.20;52.21;99884.75;5078234;28;20047;-68
2022/09/12 10:17:23;;;;;;;3.40;0.60;;;;;;;27.36;50.71;99893.53;5061853;28;20552;-68
2022/09/12 10:19:48;;;;;;;2.83;0.52;;;;;;;27.51;48.99;99890.53;5065523;28;20032;-68
2022/09/12 10:22:18;;;;;;;3.80;0.50;;;;;;;27.65;47.97;99883.84;5060731;28;20040;-68
2022/09/12 10:24:51;;;;;;;4.53;0.50;;;;;;;27.74;48.45;99873.50;5060061;28;20024;-68
2022/09/12 10:27:30;;;;;;;3.05;0.50;;;;;;;27.90;46.85;99872.94;5059079;28;20029;-68
2022/09/12 10:30:14;;;;;;;1.15;0.40;;;;;;;28.00;46.17;99865.47;5059855;28;20029;-68
2022/09/12 10:32:42;;;;;;;2.33;0.40;;;;;;;28.08;46.33;99869.84;5044226;28;20024;-68
2022/09/12 10:35:27;;;;;;;1.70;0.70;;;;;;;28.19;45.54;99876.19;5055789;28;20027;-68
2022/09/12 10:37:56;;;;;;;1.67;0.50;;;;;;;28.32;44.93;99878.47;5027404;28;20032;-68
2022/09/12 10:40:26;;;;;;;0.63;0.30;;;;;;;28.41;45.27;99881.59;5073911;28;20032;-68
2022/09/12 10:42:56;;;;;;;1.45;0.30;;;;;;;28.44;44.65;99884.41;5058008;28;20130;-68
2022/09/12 10:45:34;;;;;;;2.70;0.40;;;;;;;28.54;44.88;99885.50;5044397;28;20037;-68
2022/09/12 10:48:01;;;;;;;1.80;0.45;;;;;;;28.54;45.26;99885.50;5058840;28;20572;-68
2022/09/12 10:50:35;;;;;;;1.90;0.47;;;;;;;28.58;45.72;99880.53;5044045;28;20024;-68
2022/09/12 10:53:24;;;;;;;1.63;0.47;;;;;;;28.63;46.61;99885.75;5071251;28;20038;-68
2022/09/12 10:56:09;;;;;;;3.72;0.40;;;;;;;28.71;46.85;99890.13;5062542;28;20074;-68
2022/09/12 10:58:43;;;;;;;2.53;0.45;;;;;;;28.81;44.45;99887.53;5075394;28;20063;-68
2022/09/12 11:01:39;;;;;;;1.77;0.40;;;;;;;28.88;44.00;99887.41;5093352;28;20048;-68
2022/09/12 11:04:23;;;;;;;1.38;0.40;;;;;;;28.91;43.14;99875.88;5074020;28;20038;-68
2022/09/12 11:07:03;;;;;;;2.08;0.60;;;;;;;29.04;43.18;99881.03;5051084;28;20511;-68
2022/09/12 11:10:03;;;;;;;2.97;0.50;;;;;;;29.11;42.98;99867.41;5060265;28;20024;-68
2022/09/12 11:12:32;;;;;;;2.25;0.60;;;;;;;29.11;42.94;99864.56;5093401;28;20028;-68
2022/09/12 11:15:06;;;;;;;1.98;0.50;;;;;;;29.15;42.63;99853.84;5055303;28;20102;-68
2022/09/12 11:17:56;;;;;;;3.55;0.60;;;;;;;29.18;42.61;99855.03;5060741;28;20039;-68
2022/09/12 11:20:30;;;;;;;1.73;0.50;;;;;;;29.22;43.17;99866.41;5037002;28;20074;-68
2022/09/12 11:23:04;;;;;;;2.53;0.50;;;;;;;29.28;43.57;99864.63;5095130;28;20028;-68
2022/09/12 11:25:32;;;;;;;2.50;0.60;;;;;;;29.29;42.72;99866.28;5060447;28;20540;-68
2022/09/12 11:28:23;;;;;;;3.03;0.50;;;;;;;29.35;42.86;99864.50;5077435;28;20028;-68
2022/09/12 11:31:30;;;;;;;3.92;0.75;;;;;;;29.40;42.79;99858.28;5078820;28;20032;-68
2022/09/12 11:33:56;;;;;;;4.65;0.60;;;;;;;29.38;42.66;99850.13;5042957;28;20044;-68
2022/09/12 11:36:46;;;;;;;2.45;0.70;;;;;;;29.42;42.06;99860.69;5074686;28;20046;-68
2022/09/12 11:39:14;;;;;;;1.88;0.50;;;;;;;29.46;42.29;99859.38;5075924;28;20036;-68
2022/09/12 11:41:44;;;;;;;3.05;0.47;;;;;;;29.53;42.21;99853.53;5042106;28;20032;-68
2022/09/12 11:44:10;;;;;;;2.25;0.43;;;;;;;29.47;43.01;99849.53;5060092;28;20548;-68
2022/09/12 11:46:37;;;;;;;1.45;0.50;;;;;;;29.49;43.29;99841.34;5095226;28;20114;-68
2022/09/12 11:49:10;;;;;;;5.40;0.68;;;;;;;29.54;42.34;99843.69;5061950;28;20034;-68